sensor_id;sensor_type;location;lat;lon;timestamp;pressure;altitude;pressure_sealevel;temperature;humidity
77013;BME280;67260;53.130;17.982;2023-05-13T00:00:18;101946.49;;;9.53;53.88
77013;BME280;67260;53.130;17.982;2023-05-13T00:03:05;101946.74;;;9.46;54.34
77013;BME280;67260;53.130;17.982;2023-05-13T00:05:32;101945.27;;;9.38;54.18
77013;BME280;67260;53.130;17.982;2023-05-13T00:07:59;101946.77;;;9.28;54.82
77013;BME280;67260;53.130;17.982;2023-05-13T00:10:27;101946.98;;;9.21;54.94
77013;BME280;67260;53.130;17.982;2023-05-13T00:12:53;101944.63;;;9.17;54.86
77013;BME280;67260;53.130;17.982;2023-05-13T00:15:19;101945.16;;;9.12;55.21
77013;BME280;67260;53.130;17.982;2023-05-13T00:17:45;101949.80;;;9.07;55.70
77013;BME280;67260;53.130;17.982;2023-05-13T00:20:18;101943.67;;;9.06;56.16
77013;BME280;67260;53.130;17.982;2023-05-13T00:22:45;101947.18;;;9.06;56.51
77013;BME280;67260;53.130;17.982;2023-05-13T00:25:11;101943.37;;;9.02;56.02
77013;BME280;67260;53.130;17.982;2023-05-13T00:27:37;101943.91;;;8.96;56.09
77013;BME280;67260;53.130;17.982;2023-05-13T00:30:03;101943.34;;;8.88;55.89
77013;BME280;67260;53.130;17.982;2023-05-13T00:32:31;101939.86;;;8.79;56.53
77013;BME280;67260;53.130;17.982;2023-05-13T00:34:57;101941.94;;;8.73;56.65
77013;BME280;67260;53.130;17.982;2023-05-13T00:37:24;101940.74;;;8.68;56.58
77013;BME280;67260;53.130;17.982;2023-05-13T00:39:50;101941.38;;;8.64;57.15
77013;BME280;67260;53.130;17.982;2023-05-13T00:42:16;101939.48;;;8.63;57.38
77013;BME280;67260;53.130;17.982;2023-05-13T00:44:42;101940.58;;;8.65;57.48
77013;BME280;67260;53.130;17.982;2023-05-13T00:47:10;101940.08;;;8.63;57.57
77013;BME280;67260;53.130;17.982;2023-05-13T00:49:40;101939.48;;;8.60;57.39
77013;BME280;67260;53.130;17.982;2023-05-13T00:52:07;101934.15;;;8.59;57.63
77013;BME280;67260;53.130;17.982;2023-05-13T00:54:33;101934.88;;;8.60;57.58
77013;BME280;67260;53.130;17.982;2023-05-13T00:56:59;101937.92;;;8.57;57.49
77013;BME280;67260;53.130;17.982;2023-05-13T00:59:27;101943.11;;;8.51;57.18
77013;BME280;67260;53.130;17.982;2023-05-13T01:02:09;101945.71;;;8.46;57.64
77013;BME280;67260;53.130;17.982;2023-05-13T01:08:41;101948.35;;;8.38;58.35
77013;BME280;67260;53.130;17.982;2023-05-13T01:10:45;101951.27;;;8.31;58.79
77013;BME280;67260;53.130;17.982;2023-05-13T01:13:21;101954.10;;;8.27;58.43
77013;BME280;67260;53.130;17.982;2023-05-13T01:15:57;101954.42;;;8.23;58.51
77013;BME280;67260;53.130;17.982;2023-05-13T01:18:32;101954.80;;;8.19;59.03
77013;BME280;67260;53.130;17.982;2023-05-13T01:21:02;101957.02;;;8.15;58.95
77013;BME280;67260;53.130;17.982;2023-05-13T01:23:29;101952.84;;;8.07;58.86
77013;BME280;67260;53.130;17.982;2023-05-13T01:25:56;101955.83;;;8.01;58.98
77013;BME280;67260;53.130;17.982;2023-05-13T01:28:22;101956.89;;;7.94;59.13
77013;BME280;67260;53.130;17.982;2023-05-13T01:30:51;101959.30;;;7.91;59.60
77013;BME280;67260;53.130;17.982;2023-05-13T01:33:18;101955.06;;;7.91;59.84
77013;BME280;67260;53.130;17.982;2023-05-13T01:35:46;101954.27;;;7.92;59.74
77013;BME280;67260;53.130;17.982;2023-05-13T01:38:13;101962.02;;;7.89;59.70
77013;BME280;67260;53.130;17.982;2023-05-13T01:40:41;101960.81;;;7.83;60.62
77013;BME280;67260;53.130;17.982;2023-05-13T01:43:08;101960.97;;;7.82;60.88
77013;BME280;67260;53.130;17.982;2023-05-13T01:45:35;101957.99;;;7.81;60.46
77013;BME280;67260;53.130;17.982;2023-05-13T01:48:01;101955.16;;;7.82;60.60
77013;BME280;67260;53.130;17.982;2023-05-13T01:50:36;101955.55;;;7.81;60.60
77013;BME280;67260;53.130;17.982;2023-05-13T01:53:04;101956.18;;;7.82;60.90
77013;BME280;67260;53.130;17.982;2023-05-13T01:55:30;101955.23;;;7.83;61.31
77013;BME280;67260;53.130;17.982;2023-05-13T01:57:57;101956.19;;;7.84;60.98
77013;BME280;67260;53.130;17.982;2023-05-13T02:00:23;101959.67;;;7.86;60.95
77013;BME280;67260;53.130;17.982;2023-05-13T02:02:49;101959.24;;;7.86;61.04
77013;BME280;67260;53.130;17.982;2023-05-13T02:05:15;101961.02;;;7.85;60.84
77013;BME280;67260;53.130;17.982;2023-05-13T02:07:42;101960.27;;;7.82;60.94
77013;BME280;67260;53.130;17.982;2023-05-13T02:10:08;101961.16;;;7.80;60.91
77013;BME280;67260;53.130;17.982;2023-05-13T02:12:34;101964.58;;;7.76;61.46
77013;BME280;67260;53.130;17.982;2023-05-13T02:15:03;101960.50;;;7.74;61.42
77013;BME280;67260;53.130;17.982;2023-05-13T02:17:29;101959.56;;;7.72;61.01
77013;BME280;67260;53.130;17.982;2023-05-13T02:19:55;101958.17;;;7.66;61.49
77013;BME280;67260;53.130;17.982;2023-05-13T02:22:21;101957.99;;;7.63;61.31
77013;BME280;67260;53.130;17.982;2023-05-13T02:24:48;101955.32;;;7.58;61.33
77013;BME280;67260;53.130;17.982;2023-05-13T02:27:14;101955.56;;;7.54;61.62
77013;BME280;67260;53.130;17.982;2023-05-13T02:29:41;101958.50;;;7.49;61.74
77013;BME280;67260;53.130;17.982;2023-05-13T02:32:07;101962.77;;;7.45;61.63
77013;BME280;67260;53.130;17.982;2023-05-13T02:34:33;101962.28;;;7.40;61.94
77013;BME280;67260;53.130;17.982;2023-05-13T02:36:59;101959.45;;;7.37;62.03
77013;BME280;67260;53.130;17.982;2023-05-13T02:39:25;101961.92;;;7.35;62.17
77013;BME280;67260;53.130;17.982;2023-05-13T02:41:52;101961.56;;;7.37;62.39
77013;BME280;67260;53.130;17.982;2023-05-13T02:44:20;101963.45;;;7.37;62.60
77013;BME280;67260;53.130;17.982;2023-05-13T02:46:46;101963.81;;;7.37;62.53
77013;BME280;67260;53.130;17.982;2023-05-13T02:49:12;101964.70;;;7.35;62.62
77013;BME280;67260;53.130;17.982;2023-05-13T02:51:38;101971.11;;;7.36;63.30
77013;BME280;67260;53.130;17.982;2023-05-13T02:54:05;101970.71;;;7.37;62.96
77013;BME280;67260;53.130;17.982;2023-05-13T02:56:32;101971.08;;;7.37;62.68
77013;BME280;67260;53.130;17.982;2023-05-13T02:59:01;101968.52;;;7.36;62.61
77013;BME280;67260;53.130;17.982;2023-05-13T03:01:27;101966.15;;;7.35;62.53
77013;BME280;67260;53.130;17.982;2023-05-13T03:03:53;101968.06;;;7.35;62.59
77013;BME280;67260;53.130;17.982;2023-05-13T03:06:19;101969.29;;;7.35;62.37
77013;BME280;67260;53.130;17.982;2023-05-13T03:08:45;101969.66;;;7.37;62.47
77013;BME280;67260;53.130;17.982;2023-05-13T03:11:11;101972.56;;;7.41;62.97
77013;BME280;67260;53.130;17.982;2023-05-13T03:13:38;101974.17;;;7.49;63.26
77013;BME280;67260;53.130;17.982;2023-05-13T03:16:04;101971.05;;;7.58;62.93
77013;BME280;67260;53.130;17.982;2023-05-13T03:18:30;101974.98;;;7.67;62.45
77013;BME280;67260;53.130;17.982;2023-05-13T03:20:57;101973.40;;;7.74;62.58
77013;BME280;67260;53.130;17.982;2023-05-13T03:23:24;101976.13;;;7.84;62.39
77013;BME280;67260;53.130;17.982;2023-05-13T03:25:51;101980.69;;;7.96;62.11
77013;BME280;67260;53.130;17.982;2023-05-13T03:28:17;101978.52;;;8.10;62.37
77013;BME280;67260;53.130;17.982;2023-05-13T03:30:43;101977.30;;;8.25;62.25
77013;BME280;67260;53.130;17.982;2023-05-13T03:33:15;101978.14;;;8.43;62.01
77013;BME280;67260;53.130;17.982;2023-05-13T03:35:41;101982.35;;;8.56;61.96
77013;BME280;67260;53.130;17.982;2023-05-13T03:38:07;101981.20;;;8.66;61.94
77013;BME280;67260;53.130;17.982;2023-05-13T03:40:35;101977.98;;;9.16;61.22
77013;BME280;67260;53.130;17.982;2023-05-13T03:43:01;101981.17;;;9.90;59.96
77013;BME280;67260;53.130;17.982;2023-05-13T03:45:27;101973.61;;;10.58;58.84
77013;BME280;67260;53.130;17.982;2023-05-13T03:47:55;101976.30;;;10.96;57.60
77013;BME280;67260;53.130;17.982;2023-05-13T03:50:23;101978.52;;;11.56;56.60
77013;BME280;67260;53.130;17.982;2023-05-13T03:52:50;101980.64;;;12.28;55.26
77013;BME280;67260;53.130;17.982;2023-05-13T03:55:17;101982.05;;;12.83;54.08
77013;BME280;67260;53.130;17.982;2023-05-13T03:57:47;101981.70;;;13.16;53.50
77013;BME280;67260;53.130;17.982;2023-05-13T04:00:15;101986.86;;;13.59;52.91
77013;BME280;67260;53.130;17.982;2023-05-13T04:02:41;101990.52;;;13.81;52.32
77013;BME280;67260;53.130;17.982;2023-05-13T04:05:08;101991.84;;;13.26;52.68
77013;BME280;67260;53.130;17.982;2023-05-13T04:07:34;101996.54;;;12.84;53.28
77013;BME280;67260;53.130;17.982;2023-05-13T04:10:00;101992.98;;;12.57;53.57
77013;BME280;67260;53.130;17.982;2023-05-13T04:12:26;101997.24;;;12.37;53.66
77013;BME280;67260;53.130;17.982;2023-05-13T04:14:52;101994.55;;;12.34;53.57
77013;BME280;67260;53.130;17.982;2023-05-13T04:17:18;101996.08;;;12.89;52.49
77013;BME280;67260;53.130;17.982;2023-05-13T04:19:44;101995.90;;;13.16;51.94
77013;BME280;67260;53.130;17.982;2023-05-13T04:22:10;102000.83;;;13.81;51.39
77013;BME280;67260;53.130;17.982;2023-05-13T04:24:36;101997.50;;;13.94;51.06
77013;BME280;67260;53.130;17.982;2023-05-13T04:27:02;101993.34;;;13.35;51.78
77013;BME280;67260;53.130;17.982;2023-05-13T04:29:29;101990.30;;;13.37;51.80
77013;BME280;67260;53.130;17.982;2023-05-13T04:31:55;101987.67;;;13.01;52.46
77013;BME280;67260;53.130;17.982;2023-05-13T04:34:21;101992.48;;;12.69;52.72
77013;BME280;67260;53.130;17.982;2023-05-13T04:36:47;101995.17;;;12.71;52.86
77013;BME280;67260;53.130;17.982;2023-05-13T04:39:14;101997.40;;;12.51;53.00
77013;BME280;67260;53.130;17.982;2023-05-13T04:41:42;101998.67;;;12.98;52.37
77013;BME280;67260;53.130;17.982;2023-05-13T04:44:08;101992.45;;;14.65;49.66
77013;BME280;67260;53.130;17.982;2023-05-13T04:46:35;101986.25;;;16.16;47.34
77013;BME280;67260;53.130;17.982;2023-05-13T04:49:05;101988.66;;;17.56;44.94
77013;BME280;67260;53.130;17.982;2023-05-13T04:51:31;101991.16;;;19.01;42.95
77013;BME280;67260;53.130;17.982;2023-05-13T04:53:57;101992.34;;;20.43;41.16
77013;BME280;67260;53.130;17.982;2023-05-13T04:56:24;101994.25;;;21.63;38.58
77013;BME280;67260;53.130;17.982;2023-05-13T04:58:55;101998.70;;;22.62;37.04
77013;BME280;67260;53.130;17.982;2023-05-13T05:01:22;101999.19;;;23.46;35.53
77013;BME280;67260;53.130;17.982;2023-05-13T05:03:51;101997.89;;;24.26;33.80
77013;BME280;67260;53.130;17.982;2023-05-13T05:06:17;101991.48;;;24.67;32.43
77013;BME280;67260;53.130;17.982;2023-05-13T05:08:43;101996.77;;;25.19;31.87
77013;BME280;67260;53.130;17.982;2023-05-13T05:11:10;102000.27;;;25.89;30.73
77013;BME280;67260;53.130;17.982;2023-05-13T05:13:36;102002.34;;;26.53;29.51
77013;BME280;67260;53.130;17.982;2023-05-13T05:16:02;102002.73;;;27.16;28.22
77013;BME280;67260;53.130;17.982;2023-05-13T05:18:31;102008.17;;;27.64;27.40
77013;BME280;67260;53.130;17.982;2023-05-13T05:20:57;102006.30;;;28.34;26.43
77013;BME280;67260;53.130;17.982;2023-05-13T05:23:23;102006.27;;;28.70;24.52
77013;BME280;67260;53.130;17.982;2023-05-13T05:25:50;102007.39;;;28.87;24.53
77013;BME280;67260;53.130;17.982;2023-05-13T05:28:16;102007.60;;;29.13;23.25
77013;BME280;67260;53.130;17.982;2023-05-13T05:30:43;102007.74;;;29.44;23.07
77013;BME280;67260;53.130;17.982;2023-05-13T05:33:18;102008.40;;;30.03;21.85
77013;BME280;67260;53.130;17.982;2023-05-13T05:35:45;102008.25;;;30.20;21.84
77013;BME280;67260;53.130;17.982;2023-05-13T05:38:14;102005.48;;;30.69;21.41
77013;BME280;67260;53.130;17.982;2023-05-13T05:40:44;102005.19;;;31.53;20.42
77013;BME280;67260;53.130;17.982;2023-05-13T05:43:11;102008.19;;;31.97;19.86
77013;BME280;67260;53.130;17.982;2023-05-13T05:45:38;102004.52;;;32.27;19.53
77013;BME280;67260;53.130;17.982;2023-05-13T05:48:05;102005.52;;;32.72;19.10
77013;BME280;67260;53.130;17.982;2023-05-13T05:50:32;102004.83;;;33.11;18.34
77013;BME280;67260;53.130;17.982;2023-05-13T05:53:00;102002.98;;;33.30;18.11
77013;BME280;67260;53.130;17.982;2023-05-13T05:55:26;102007.44;;;33.79;17.92
77013;BME280;67260;53.130;17.982;2023-05-13T05:57:54;102008.67;;;34.46;17.50
77013;BME280;67260;53.130;17.982;2023-05-13T06:00:20;102008.07;;;34.70;16.32
77013;BME280;67260;53.130;17.982;2023-05-13T06:02:46;102008.29;;;34.67;16.50
77013;BME280;67260;53.130;17.982;2023-05-13T06:05:14;102010.38;;;34.77;16.66
77013;BME280;67260;53.130;17.982;2023-05-13T06:07:41;102003.75;;;35.17;15.94
77013;BME280;67260;53.130;17.982;2023-05-13T06:10:07;102005.77;;;35.61;15.54
77013;BME280;67260;53.130;17.982;2023-05-13T06:12:33;102004.46;;;36.00;15.14
77013;BME280;67260;53.130;17.982;2023-05-13T06:15:00;101999.55;;;36.32;14.83
77013;BME280;67260;53.130;17.982;2023-05-13T06:17:26;102004.20;;;36.29;14.67
77013;BME280;67260;53.130;17.982;2023-05-13T06:19:52;102007.04;;;36.19;13.77
77013;BME280;67260;53.130;17.982;2023-05-13T06:22:20;102003.67;;;36.33;14.06
77013;BME280;67260;53.130;17.982;2023-05-13T06:24:46;102005.36;;;36.29;13.88
77013;BME280;67260;53.130;17.982;2023-05-13T06:27:13;102006.44;;;36.55;14.05
77013;BME280;67260;53.130;17.982;2023-05-13T06:29:42;102003.29;;;37.29;13.60
77013;BME280;67260;53.130;17.982;2023-05-13T06:32:09;102004.67;;;37.57;13.18
77013;BME280;67260;53.130;17.982;2023-05-13T06:34:36;102006.70;;;37.42;12.95
77013;BME280;67260;53.130;17.982;2023-05-13T06:37:04;102008.09;;;36.86;13.04
77013;BME280;67260;53.130;17.982;2023-05-13T06:39:31;102011.66;;;36.92;13.38
77013;BME280;67260;53.130;17.982;2023-05-13T06:41:57;102010.53;;;37.00;13.00
77013;BME280;67260;53.130;17.982;2023-05-13T06:44:30;102007.20;;;36.88;13.25
77013;BME280;67260;53.130;17.982;2023-05-13T06:47:03;102007.27;;;37.11;13.07
77013;BME280;67260;53.130;17.982;2023-05-13T06:49:32;102006.45;;;37.24;12.83
77013;BME280;67260;53.130;17.982;2023-05-13T06:51:58;102007.54;;;37.53;12.76
77013;BME280;67260;53.130;17.982;2023-05-13T06:54:24;102002.65;;;37.77;12.64
77013;BME280;67260;53.130;17.982;2023-05-13T06:56:53;102006.43;;;37.04;12.89
77013;BME280;67260;53.130;17.982;2023-05-13T06:59:20;102012.63;;;33.95;14.54
77013;BME280;67260;53.130;17.982;2023-05-13T07:01:47;102017.04;;;32.13;15.66
77013;BME280;67260;53.130;17.982;2023-05-13T07:04:13;102018.96;;;32.29;15.87
77013;BME280;67260;53.130;17.982;2023-05-13T07:06:42;102018.37;;;32.48;16.09
77013;BME280;67260;53.130;17.982;2023-05-13T07:09:10;102017.44;;;32.83;16.06
77013;BME280;67260;53.130;17.982;2023-05-13T07:11:36;102020.58;;;31.74;16.85
77013;BME280;67260;53.130;17.982;2023-05-13T07:14:02;102021.46;;;30.09;18.31
77013;BME280;67260;53.130;17.982;2023-05-13T07:16:28;102023.41;;;30.47;18.26
77013;BME280;67260;53.130;17.982;2023-05-13T07:18:54;102021.41;;;30.57;18.41
77013;BME280;67260;53.130;17.982;2023-05-13T07:21:22;102023.10;;;29.77;18.59
77013;BME280;67260;53.130;17.982;2023-05-13T07:23:48;102015.30;;;29.08;19.16
77013;BME280;67260;53.130;17.982;2023-05-13T07:26:17;102017.72;;;29.10;19.72
77013;BME280;67260;53.130;17.982;2023-05-13T07:28:43;102015.86;;;31.05;18.56
77013;BME280;67260;53.130;17.982;2023-05-13T07:31:10;102012.80;;;33.05;17.42
77013;BME280;67260;53.130;17.982;2023-05-13T07:33:36;102009.77;;;34.48;16.29
77013;BME280;67260;53.130;17.982;2023-05-13T07:36:03;102013.78;;;35.60;15.74
77013;BME280;67260;53.130;17.982;2023-05-13T07:38:29;102010.17;;;36.64;14.92
77013;BME280;67260;53.130;17.982;2023-05-13T07:40:55;102006.20;;;37.40;13.81
77013;BME280;67260;53.130;17.982;2023-05-13T07:43:21;102000.86;;;37.97;13.55
77013;BME280;67260;53.130;17.982;2023-05-13T07:45:52;102002.16;;;38.58;13.21
77013;BME280;67260;53.130;17.982;2023-05-13T07:48:21;102005.47;;;39.06;12.40
77013;BME280;67260;53.130;17.982;2023-05-13T07:51:05;102001.21;;;39.31;11.98
77013;BME280;67260;53.130;17.982;2023-05-13T07:53:56;102006.48;;;39.46;11.61
77013;BME280;67260;53.130;17.982;2023-05-13T07:56:26;102002.78;;;39.35;11.41
77013;BME280;67260;53.130;17.982;2023-05-13T07:58:56;102003.84;;;39.41;11.06
77013;BME280;67260;53.130;17.982;2023-05-13T08:01:23;102004.60;;;39.48;11.26
77013;BME280;67260;53.130;17.982;2023-05-13T08:03:50;101999.71;;;39.27;11.04
77013;BME280;67260;53.130;17.982;2023-05-13T08:06:16;102000.91;;;39.37;11.26
77013;BME280;67260;53.130;17.982;2023-05-13T08:08:45;102003.42;;;39.77;10.95
77013;BME280;67260;53.130;17.982;2023-05-13T08:11:12;102004.13;;;39.86;10.69
77013;BME280;67260;53.130;17.982;2023-05-13T08:13:40;102000.87;;;39.70;10.70
77013;BME280;67260;53.130;17.982;2023-05-13T08:16:35;102003.80;;;39.49;10.62
77013;BME280;67260;53.130;17.982;2023-05-13T08:19:08;102004.55;;;38.95;10.60
77013;BME280;67260;53.130;17.982;2023-05-13T08:22:08;102001.64;;;38.96;10.84
77013;BME280;67260;53.130;17.982;2023-05-13T08:24:34;101995.84;;;39.28;10.81
77013;BME280;67260;53.130;17.982;2023-05-13T08:27:22;101993.84;;;39.57;10.56
77013;BME280;67260;53.130;17.982;2023-05-13T08:30:20;101997.80;;;39.40;10.46
77013;BME280;67260;53.130;17.982;2023-05-13T08:32:56;101996.54;;;39.22;10.64
77013;BME280;67260;53.130;17.982;2023-05-13T08:35:46;102000.80;;;39.60;10.43
77013;BME280;67260;53.130;17.982;2023-05-13T08:38:16;102000.38;;;39.90;10.29
77013;BME280;67260;53.130;17.982;2023-05-13T08:41:06;101997.50;;;39.52;10.12
77013;BME280;67260;53.130;17.982;2023-05-13T08:43:53;101995.40;;;39.15;10.32
77013;BME280;67260;53.130;17.982;2023-05-13T08:46:23;101990.12;;;39.09;10.56
77013;BME280;67260;53.130;17.982;2023-05-13T08:48:57;101988.36;;;39.27;10.46
77013;BME280;67260;53.130;17.982;2023-05-13T08:51:26;101985.63;;;39.45;10.32
77013;BME280;67260;53.130;17.982;2023-05-13T08:53:54;101986.35;;;39.67;10.04
77013;BME280;67260;53.130;17.982;2023-05-13T08:56:21;101984.55;;;39.74;9.94
77013;BME280;67260;53.130;17.982;2023-05-13T08:58:51;101981.21;;;39.51;9.96
77013;BME280;67260;53.130;17.982;2023-05-13T09:01:18;101981.19;;;39.95;10.02
77013;BME280;67260;53.130;17.982;2023-05-13T09:04:05;101973.64;;;40.13;9.85
77013;BME280;67260;53.130;17.982;2023-05-13T09:06:33;101968.64;;;40.01;9.64
77013;BME280;67260;53.130;17.982;2023-05-13T09:09:00;101968.86;;;39.94;9.80
77013;BME280;67260;53.130;17.982;2023-05-13T09:11:28;101963.77;;;40.18;9.37
77013;BME280;67260;53.130;17.982;2023-05-13T09:14:00;101962.00;;;40.11;9.57
77013;BME280;67260;53.130;17.982;2023-05-13T09:16:28;101965.63;;;40.01;9.60
77013;BME280;67260;53.130;17.982;2023-05-13T09:19:05;101958.84;;;40.38;9.69
77013;BME280;67260;53.130;17.982;2023-05-13T09:21:36;101965.95;;;40.55;9.53
77013;BME280;67260;53.130;17.982;2023-05-13T09:24:11;101962.50;;;40.53;9.37
77013;BME280;67260;53.130;17.982;2023-05-13T09:26:40;101956.95;;;40.40;9.30
77013;BME280;67260;53.130;17.982;2023-05-13T09:29:33;101949.48;;;40.42;9.60
77013;BME280;67260;53.130;17.982;2023-05-13T09:32:00;101952.84;;;38.20;10.18
77013;BME280;67260;53.130;17.982;2023-05-13T09:34:31;101950.72;;;37.33;11.03
77013;BME280;67260;53.130;17.982;2023-05-13T09:37:05;101946.27;;;36.76;11.34
77013;BME280;67260;53.130;17.982;2023-05-13T09:39:33;101950.98;;;34.67;12.29
77013;BME280;67260;53.130;17.982;2023-05-13T09:42:03;101950.82;;;33.46;13.02
77013;BME280;67260;53.130;17.982;2023-05-13T09:44:29;101948.32;;;32.34;13.79
77013;BME280;67260;53.130;17.982;2023-05-13T09:46:55;101949.67;;;30.97;14.40
77013;BME280;67260;53.130;17.982;2023-05-13T09:49:23;101947.86;;;29.83;15.45
77013;BME280;67260;53.130;17.982;2023-05-13T09:51:50;101947.16;;;28.81;16.23
77013;BME280;67260;53.130;17.982;2023-05-13T09:54:17;101946.92;;;27.96;17.10
77013;BME280;67260;53.130;17.982;2023-05-13T09:56:44;101948.80;;;27.29;17.52
77013;BME280;67260;53.130;17.982;2023-05-13T09:59:10;101948.52;;;26.70;17.97
77013;BME280;67260;53.130;17.982;2023-05-13T10:01:38;101944.41;;;26.72;18.12
77013;BME280;67260;53.130;17.982;2023-05-13T10:04:05;101940.08;;;26.31;18.84
77013;BME280;67260;53.130;17.982;2023-05-13T10:06:32;101941.67;;;25.60;19.38
77013;BME280;67260;53.130;17.982;2023-05-13T10:09:00;101936.24;;;25.06;19.93
77013;BME280;67260;53.130;17.982;2023-05-13T10:11:32;101933.92;;;24.72;20.22
77013;BME280;67260;53.130;17.982;2023-05-13T10:14:05;101932.84;;;24.59;20.33
77013;BME280;67260;53.130;17.982;2023-05-13T10:16:31;101926.00;;;25.32;20.09
77013;BME280;67260;53.130;17.982;2023-05-13T10:18:58;101924.52;;;26.09;19.56
77013;BME280;67260;53.130;17.982;2023-05-13T10:21:28;101925.30;;;25.60;19.78
77013;BME280;67260;53.130;17.982;2023-05-13T10:23:55;101926.23;;;25.08;20.05
77013;BME280;67260;53.130;17.982;2023-05-13T10:26:22;101924.35;;;24.93;20.14
77013;BME280;67260;53.130;17.982;2023-05-13T10:28:48;101917.35;;;27.19;18.80
77013;BME280;67260;53.130;17.982;2023-05-13T10:31:16;101909.45;;;29.58;17.09
77013;BME280;67260;53.130;17.982;2023-05-13T10:33:43;101904.15;;;31.40;16.08
77013;BME280;67260;53.130;17.982;2023-05-13T10:36:51;101906.02;;;31.54;15.47
77013;BME280;67260;53.130;17.982;2023-05-13T10:39:55;101908.11;;;29.33;16.12
77013;BME280;67260;53.130;17.982;2023-05-13T10:42:40;101906.46;;;27.86;17.20
77013;BME280;67260;53.130;17.982;2023-05-13T10:45:09;101913.86;;;27.04;17.86
77013;BME280;67260;53.130;17.982;2023-05-13T10:47:37;101914.91;;;26.37;18.43
77013;BME280;67260;53.130;17.982;2023-05-13T10:50:21;101914.79;;;26.50;18.45
77013;BME280;67260;53.130;17.982;2023-05-13T10:52:48;101904.59;;;28.42;17.19
77013;BME280;67260;53.130;17.982;2023-05-13T10:55:19;101905.31;;;28.10;17.37
77013;BME280;67260;53.130;17.982;2023-05-13T11:00:43;101900.63;;;26.53;18.44
77013;BME280;67260;53.130;17.982;2023-05-13T11:03:25;101905.23;;;25.77;19.14
77013;BME280;67260;53.130;17.982;2023-05-13T11:06:17;101907.98;;;24.97;19.55
77013;BME280;67260;53.130;17.982;2023-05-13T11:08:46;101906.11;;;24.33;20.43
77013;BME280;67260;53.130;17.982;2023-05-13T11:16:17;101901.41;;;24.87;20.09
77013;BME280;67260;53.130;17.982;2023-05-13T11:18:43;101906.36;;;24.48;20.79
77013;BME280;67260;53.130;17.982;2023-05-13T11:21:09;101899.47;;;24.22;21.18
77013;BME280;67260;53.130;17.982;2023-05-13T11:24:01;101897.16;;;24.15;21.38
77013;BME280;67260;53.130;17.982;2023-05-13T11:26:57;101902.38;;;24.52;21.37
77013;BME280;67260;53.130;17.982;2023-05-13T11:29:35;101893.11;;;25.32;20.42
77013;BME280;67260;53.130;17.982;2023-05-13T11:32:06;101893.77;;;25.46;20.39
77013;BME280;67260;53.130;17.982;2023-05-13T11:34:33;101897.95;;;25.34;20.02
77013;BME280;67260;53.130;17.982;2023-05-13T11:39:29;101889.84;;;24.48;20.90
77013;BME280;67260;53.130;17.982;2023-05-13T11:42:06;101891.81;;;24.25;21.21
77013;BME280;67260;53.130;17.982;2023-05-13T11:44:33;101887.96;;;24.06;21.35
77013;BME280;67260;53.130;17.982;2023-05-13T11:47:06;101882.73;;;23.92;21.47
77013;BME280;67260;53.130;17.982;2023-05-13T11:49:46;101880.58;;;23.88;21.68
77013;BME280;67260;53.130;17.982;2023-05-13T11:52:18;101877.30;;;23.82;21.77
77013;BME280;67260;53.130;17.982;2023-05-13T11:57:20;101878.93;;;23.68;21.60
77013;BME280;67260;53.130;17.982;2023-05-13T11:59:57;101878.41;;;23.60;22.02
77013;BME280;67260;53.130;17.982;2023-05-13T12:02:29;101873.17;;;23.68;21.86
77013;BME280;67260;53.130;17.982;2023-05-13T12:05:04;101878.33;;;23.84;22.00
77013;BME280;67260;53.130;17.982;2023-05-13T12:07:31;101877.84;;;23.81;21.61
77013;BME280;67260;53.130;17.982;2023-05-13T12:10:02;101875.78;;;24.22;21.19
77013;BME280;67260;53.130;17.982;2023-05-13T12:12:29;101873.21;;;24.74;20.56
77013;BME280;67260;53.130;17.982;2023-05-13T12:15:08;101875.02;;;24.46;20.89
77013;BME280;67260;53.130;17.982;2023-05-13T12:17:36;101875.82;;;24.13;21.12
77013;BME280;67260;53.130;17.982;2023-05-13T12:22:33;101873.45;;;23.69;21.22
77013;BME280;67260;53.130;17.982;2023-05-13T12:28:26;101873.80;;;23.21;21.79
77013;BME280;67260;53.130;17.982;2023-05-13T12:31:02;101874.52;;;23.15;22.00
77013;BME280;67260;53.130;17.982;2023-05-13T12:33:39;101875.51;;;23.15;21.99
77013;BME280;67260;53.130;17.982;2023-05-13T12:36:40;101872.58;;;23.15;22.01
77013;BME280;67260;53.130;17.982;2023-05-13T12:39:10;101868.89;;;23.15;22.17
77013;BME280;67260;53.130;17.982;2023-05-13T12:41:38;101871.23;;;23.18;21.86
77013;BME280;67260;53.130;17.982;2023-05-13T12:44:12;101870.85;;;23.17;22.07
77013;BME280;67260;53.130;17.982;2023-05-13T12:46:52;101872.66;;;23.20;22.23
77013;BME280;67260;53.130;17.982;2023-05-13T12:49:30;101877.60;;;23.22;22.06
77013;BME280;67260;53.130;17.982;2023-05-13T12:51:56;101875.41;;;23.19;22.05
77013;BME280;67260;53.130;17.982;2023-05-13T12:54:22;101874.37;;;23.16;22.05
77013;BME280;67260;53.130;17.982;2023-05-13T12:56:48;101878.60;;;23.16;22.12
77013;BME280;67260;53.130;17.982;2023-05-13T12:59:15;101873.78;;;23.19;22.23
77013;BME280;67260;53.130;17.982;2023-05-13T13:01:42;101866.20;;;23.29;22.37
77013;BME280;67260;53.130;17.982;2023-05-13T13:04:08;101864.36;;;23.43;22.21
77013;BME280;67260;53.130;17.982;2023-05-13T13:06:34;101860.00;;;23.48;22.15
77013;BME280;67260;53.130;17.982;2023-05-13T13:09:00;101858.48;;;23.49;22.20
77013;BME280;67260;53.130;17.982;2023-05-13T13:11:27;101858.80;;;23.47;22.25
77013;BME280;67260;53.130;17.982;2023-05-13T13:14:02;101857.59;;;23.42;22.41
77013;BME280;67260;53.130;17.982;2023-05-13T13:16:29;101855.85;;;23.31;22.13